createdAt,value
2023-06-13T00:00:49.939Z,63.62
2023-06-13T00:01:50.024Z,65.27
2023-06-13T00:02:51.032Z,66.41
2023-06-13T00:03:49.932Z,66.92
2023-06-13T00:04:50.909Z,67.15
2023-06-13T00:05:49.911Z,67.05
2023-06-13T00:06:49.908Z,67.15
2023-06-13T00:07:49.925Z,66.85
2023-06-13T00:08:49.875Z,66.55
2023-06-13T00:09:49.919Z,66.61
2023-06-13T00:10:49.883Z,66.82
2023-06-13T00:11:49.862Z,66.41
2023-06-13T00:12:49.843Z,65.91
2023-06-13T00:13:49.841Z,66.31
2023-06-13T00:14:49.856Z,67.15
2023-06-13T00:15:49.842Z,66.64
2023-06-13T00:16:49.826Z,66.98
2023-06-13T00:17:50.055Z,68.23
2023-06-13T00:18:49.875Z,68.77
2023-06-13T00:19:49.950Z,68.43
2023-06-13T00:20:49.794Z,68.02
2023-06-13T00:21:49.815Z,68.10
2023-06-13T00:22:49.809Z,67.59
2023-06-13T00:23:49.792Z,67.46
2023-06-13T00:24:49.805Z,67.25
2023-06-13T00:25:50.296Z,66.55
2023-06-13T00:26:49.780Z,66.24
2023-06-13T00:27:49.768Z,66.41
2023-06-13T00:28:49.761Z,65.57
2023-06-13T00:29:49.742Z,65.88
2023-06-13T00:30:49.752Z,65.67
2023-06-13T00:31:49.739Z,65.34
2023-06-13T00:32:49.784Z,64.73
2023-06-13T00:33:49.754Z,64.56
2023-06-13T00:34:49.718Z,66.01
2023-06-13T00:35:49.703Z,66.28
2023-06-13T00:36:49.722Z,66.08
2023-06-13T00:37:49.833Z,64.97
2023-06-13T00:38:49.783Z,64.43
2023-06-13T00:39:49.699Z,65.07
2023-06-13T00:40:49.679Z,64.97
2023-06-13T00:41:49.687Z,65.24
2023-06-13T00:42:49.678Z,65.04
2023-06-13T00:43:49.645Z,65.27
2023-06-13T00:44:49.681Z,65.47
2023-06-13T00:45:50.164Z,65.88
2023-06-13T00:46:49.753Z,65.94
2023-06-13T00:47:49.652Z,66.24
2023-06-13T00:48:49.616Z,66.95
2023-06-13T00:49:49.630Z,66.14
2023-06-13T00:50:49.639Z,66.95
2023-06-13T00:51:49.618Z,67.39
2023-06-13T00:52:49.626Z,67.82
2023-06-13T00:53:49.594Z,67.29
2023-06-13T00:54:49.600Z,67.42
2023-06-13T00:55:49.585Z,67.93
2023-06-13T00:56:49.550Z,68.26
2023-06-13T00:57:49.547Z,68.33
2023-06-13T00:58:49.545Z,68.56
2023-06-13T00:59:49.544Z,68.56
2023-06-13T01:00:49.549Z,68.80
2023-06-13T01:01:49.557Z,69.31
2023-06-13T01:02:49.590Z,69.00
2023-06-13T01:03:49.547Z,69.41
2023-06-13T01:04:49.576Z,69.34
2023-06-13T01:05:49.504Z,70.89
2023-06-13T01:06:49.496Z,71.44
2023-06-13T01:07:49.533Z,72.45
2023-06-13T01:08:49.482Z,71.94
2023-06-13T01:09:49.483Z,71.44
2023-06-13T01:10:49.480Z,71.50
2023-06-13T01:11:50.494Z,70.35
2023-06-13T01:12:49.484Z,70.52
2023-06-13T01:13:49.476Z,69.71
2023-06-13T01:14:49.446Z,69.48
2023-06-13T01:15:49.426Z,68.46
2023-06-13T01:16:49.560Z,68.77
2023-06-13T01:17:49.518Z,68.70
2023-06-13T01:18:49.429Z,68.90
2023-06-13T01:19:49.422Z,69.61
2023-06-13T01:20:49.434Z,69.84
2023-06-13T01:21:49.405Z,69.71
2023-06-13T01:22:49.404Z,69.54
2023-06-13T01:23:49.449Z,70.35
2023-06-13T01:24:49.364Z,70.25
2023-06-13T01:25:49.373Z,69.71
2023-06-13T01:26:49.359Z,68.97
2023-06-13T01:27:49.362Z,68.46
2023-06-13T01:28:49.361Z,68.26
2023-06-13T01:29:49.349Z,68.80
2023-06-13T01:30:49.354Z,70.05
2023-06-13T01:31:49.386Z,70.25
2023-06-13T01:32:49.376Z,70.15
2023-06-13T01:33:49.333Z,70.35
2023-06-13T01:34:49.297Z,69.44
2023-06-13T01:35:49.320Z,70.05
2023-06-13T01:36:49.309Z,69.95
2023-06-13T01:37:49.316Z,70.05
2023-06-13T01:38:49.292Z,69.41
2023-06-13T01:39:49.268Z,69.41
2023-06-13T01:40:49.269Z,69.24
2023-06-13T01:41:49.287Z,69.44
2023-06-13T01:42:49.295Z,69.64
2023-06-13T01:43:49.322Z,69.51
2023-06-13T01:44:49.219Z,69.54
2023-06-13T01:45:49.296Z,70.28
2023-06-13T01:46:49.246Z,70.28
2023-06-13T01:47:49.250Z,69.88
2023-06-13T01:48:49.216Z,70.28
2023-06-13T01:49:49.238Z,70.32
2023-06-13T01:50:49.191Z,71.44
2023-06-13T01:51:49.210Z,71.64
2023-06-13T01:52:49.220Z,71.53
2023-06-13T01:53:49.172Z,71.47
2023-06-13T01:54:49.165Z,72.58
2023-06-13T01:55:49.160Z,72.78
2023-06-13T01:56:49.165Z,72.69
2023-06-13T01:57:49.172Z,71.64
2023-06-13T01:58:49.154Z,71.23
2023-06-13T01:59:49.110Z,70.39
2023-06-13T02:00:49.120Z,69.74
2023-06-13T02:01:50.130Z,69.44
2023-06-13T02:02:49.217Z,68.80
2023-06-13T02:03:49.193Z,68.70
2023-06-13T02:04:49.098Z,68.80
2023-06-13T02:05:49.105Z,68.60
2023-06-13T02:06:49.089Z,68.19
2023-06-13T02:07:49.087Z,68.49
2023-06-13T02:08:49.100Z,68.70
2023-06-13T02:09:49.105Z,68.52
2023-06-13T02:10:49.122Z,69.03
2023-06-13T02:11:49.050Z,68.83
2023-06-13T02:12:49.079Z,69.00
2023-06-13T02:13:49.022Z,69.13
2023-06-13T02:14:49.018Z,69.13
2023-06-13T02:15:49.024Z,69.03
2023-06-13T02:16:49.075Z,69.64
2023-06-13T02:17:49.097Z,70.42
2023-06-13T02:18:49.045Z,71.80
2023-06-13T02:19:49.032Z,73.02
2023-06-13T02:20:48.979Z,72.69
2023-06-13T02:21:48.974Z,73.26
2023-06-13T02:22:48.988Z,73.36
2023-06-13T02:23:48.993Z,72.62
2023-06-13T02:24:48.958Z,73.13
2023-06-13T02:25:48.961Z,73.33
2023-06-13T02:26:48.969Z,72.69
2023-06-13T02:27:48.917Z,73.16
2023-06-13T02:28:48.972Z,73.06
2023-06-13T02:29:48.931Z,72.85
2023-06-13T02:30:48.922Z,72.78
2023-06-13T02:31:49.063Z,73.80
2023-06-13T02:32:48.941Z,74.52
2023-06-13T02:33:48.882Z,74.21
2023-06-13T02:34:48.898Z,74.92
2023-06-13T02:35:48.871Z,73.19
2023-06-13T02:36:48.877Z,72.75
2023-06-13T02:37:48.864Z,72.89
2023-06-13T02:38:48.850Z,74.21
2023-06-13T02:39:48.873Z,74.72
2023-06-13T02:40:48.879Z,73.46
2023-06-13T02:41:48.828Z,72.65
2023-06-13T02:42:48.887Z,73.39
2023-06-13T02:43:48.824Z,73.36
2023-06-13T02:44:48.816Z,72.75
2023-06-13T02:45:48.814Z,73.02
2023-06-13T02:46:48.790Z,73.06
2023-06-13T02:47:48.913Z,73.09
2023-06-13T02:48:48.918Z,72.85
2023-06-13T02:49:48.783Z,73.19
2023-06-13T02:50:48.806Z,73.19
2023-06-13T02:51:48.769Z,72.99
2023-06-13T02:52:51.688Z,73.02
2023-06-13T02:53:48.800Z,74.76
2023-06-13T02:54:48.755Z,74.15
2023-06-13T02:55:48.737Z,74.76
2023-06-13T02:56:48.804Z,73.70
2023-06-13T02:57:48.739Z,73.43
2023-06-13T02:58:48.737Z,72.99
2023-06-13T02:59:48.715Z,73.19
2023-06-13T03:00:48.761Z,73.30
2023-06-13T03:01:48.694Z,73.74
2023-06-13T03:02:48.776Z,73.84
2023-06-13T03:03:48.937Z,73.80
2023-06-13T03:04:48.694Z,73.09
2023-06-13T03:05:48.827Z,73.91
2023-06-13T03:06:48.688Z,73.09
2023-06-13T03:07:48.690Z,73.09
2023-06-13T03:08:48.678Z,72.99
2023-06-13T03:09:48.708Z,73.09
2023-06-13T03:10:48.623Z,73.23
2023-06-13T03:11:48.623Z,73.63
2023-06-13T03:12:48.624Z,73.63
2023-06-13T03:13:48.652Z,73.30
2023-06-13T03:14:48.636Z,73.54
2023-06-13T03:15:48.664Z,73.74
2023-06-13T03:16:48.697Z,73.63
2023-06-13T03:17:48.649Z,74.96
2023-06-13T03:18:48.600Z,74.85
2023-06-13T03:19:49.936Z,73.43
2023-06-13T03:20:48.565Z,73.43
2023-06-13T03:21:48.566Z,74.69
2023-06-13T03:22:48.565Z,73.94
2023-06-13T03:23:48.634Z,73.54
2023-06-13T03:24:48.541Z,73.84
2023-06-13T03:25:48.525Z,73.74
2023-06-13T03:26:48.568Z,73.84
2023-06-13T03:27:48.574Z,74.99
2023-06-13T03:28:48.568Z,75.50
2023-06-13T03:29:48.543Z,75.30
2023-06-13T03:30:48.532Z,74.99
2023-06-13T03:31:48.525Z,74.28
2023-06-13T03:32:48.584Z,74.79
2023-06-13T03:33:48.492Z,74.58
2023-06-13T03:34:48.506Z,74.24
2023-06-13T03:35:48.478Z,74.28
2023-06-13T03:36:48.485Z,74.82
2023-06-13T03:37:48.468Z,75.20
2023-06-13T03:38:48.519Z,75.43
2023-06-13T03:39:48.466Z,76.15
2023-06-13T03:40:48.450Z,75.84
2023-06-13T03:41:48.451Z,75.30
2023-06-13T03:42:48.423Z,74.96
2023-06-13T03:43:48.445Z,74.24
2023-06-13T03:44:48.486Z,72.89
2023-06-13T03:45:48.441Z,73.30
2023-06-13T03:46:48.405Z,73.19
2023-06-13T03:47:48.503Z,73.30
2023-06-13T03:48:48.555Z,72.89
2023-06-13T03:49:48.385Z,73.26
2023-06-13T03:50:48.382Z,72.96
2023-06-13T03:51:48.366Z,72.55
2023-06-13T03:52:49.362Z,72.75
2023-06-13T03:53:48.415Z,72.65
2023-06-13T03:54:48.356Z,72.55
2023-06-13T03:55:48.321Z,72.45
2023-06-13T03:56:48.308Z,71.53
2023-06-13T03:57:48.326Z,72.96
2023-06-13T03:58:48.339Z,71.84
2023-06-13T03:59:48.304Z,73.02
2023-06-13T04:00:48.290Z,72.72
2023-06-13T04:01:48.308Z,72.62
2023-06-13T04:02:48.354Z,71.36
2023-06-13T04:03:48.438Z,71.36
2023-06-13T04:04:48.277Z,71.06
2023-06-13T04:05:48.292Z,71.36
2023-06-13T04:06:48.249Z,70.52
2023-06-13T04:07:48.303Z,70.21
2023-06-13T04:08:48.304Z,69.88
2023-06-13T04:09:48.333Z,69.37
2023-06-13T04:10:48.260Z,69.88
2023-06-13T04:11:48.224Z,69.03
2023-06-13T04:12:48.236Z,69.98
2023-06-13T04:13:48.228Z,69.74
2023-06-13T04:14:48.292Z,69.34
2023-06-13T04:15:48.215Z,69.64
2023-06-13T04:16:48.246Z,69.24
2023-06-13T04:17:48.531Z,68.70
2023-06-13T04:18:49.191Z,68.73
2023-06-13T04:19:48.182Z,68.63
2023-06-13T04:20:48.175Z,68.60
2023-06-13T04:21:48.208Z,68.80
2023-06-13T04:22:48.180Z,68.70
2023-06-13T04:23:48.150Z,68.90
2023-06-13T04:24:48.252Z,68.77
2023-06-13T04:25:48.126Z,68.70
2023-06-13T04:26:48.120Z,68.77
2023-06-13T04:27:48.324Z,68.66
2023-06-13T04:28:48.109Z,68.66
2023-06-13T04:29:48.096Z,68.06
2023-06-13T04:30:48.120Z,68.36
2023-06-13T04:31:48.191Z,68.46
2023-06-13T04:32:49.129Z,68.23
2023-06-13T04:33:48.209Z,68.43
2023-06-13T04:34:48.155Z,68.77
2023-06-13T04:35:48.084Z,68.84
2023-06-13T04:36:49.041Z,68.94
2023-06-13T04:37:48.100Z,68.23
2023-06-13T04:38:48.046Z,68.40
2023-06-13T04:39:48.013Z,68.40
2023-06-13T04:40:48.083Z,68.67
2023-06-13T04:41:48.040Z,67.99
2023-06-13T04:42:48.006Z,67.76
2023-06-13T04:43:48.001Z,67.96
2023-06-13T04:44:48.055Z,67.66
2023-06-13T04:45:48.057Z,67.83
2023-06-13T04:46:47.975Z,67.80
2023-06-13T04:47:56.238Z,67.29
2023-06-13T04:48:49.942Z,67.29
2023-06-13T04:49:47.978Z,66.75
2023-06-13T04:50:48.101Z,66.55
2023-06-13T04:51:47.957Z,66.75
2023-06-13T04:52:47.945Z,66.96
2023-06-13T04:53:47.913Z,66.96
2023-06-13T04:54:47.925Z,66.86
2023-06-13T04:55:49.013Z,66.75
2023-06-13T04:56:47.928Z,66.86
2023-06-13T04:57:48.005Z,67.06
2023-06-13T04:58:47.925Z,66.72
2023-06-13T04:59:47.886Z,66.72
2023-06-13T05:00:47.943Z,65.71
2023-06-13T05:01:48.436Z,65.48
2023-06-13T05:02:50.779Z,66.32
2023-06-13T05:03:47.897Z,65.68
2023-06-13T05:04:47.892Z,65.38
2023-06-13T05:05:47.910Z,65.15
2023-06-13T05:06:47.847Z,64.44
2023-06-13T05:07:47.831Z,63.93
2023-06-13T05:08:47.881Z,64.41
2023-06-13T05:09:47.844Z,63.87
2023-06-13T05:10:47.805Z,65.78
2023-06-13T05:11:47.815Z,65.78
2023-06-13T05:12:47.793Z,65.65
2023-06-13T05:13:47.805Z,65.15
2023-06-13T05:14:47.792Z,64.31
2023-06-13T05:15:47.867Z,63.17
2023-06-13T05:16:47.768Z,63.67
2023-06-13T05:17:47.765Z,62.84
2023-06-13T05:18:48.340Z,62.94
2023-06-13T05:19:47.764Z,63.17
2023-06-13T05:20:48.761Z,63.65
2023-06-13T05:21:47.796Z,63.45
2023-06-13T05:22:47.744Z,62.94
2023-06-13T05:23:47.839Z,62.91
2023-06-13T05:24:47.717Z,62.94
2023-06-13T05:25:47.701Z,63.57
2023-06-13T05:26:47.741Z,64.51
2023-06-13T05:27:47.729Z,63.57
2023-06-13T05:28:47.694Z,63.65
2023-06-13T05:29:47.695Z,62.84
2023-06-13T05:30:47.749Z,62.51
2023-06-13T05:31:47.749Z,62.34
2023-06-13T05:32:47.774Z,63.65
2023-06-13T05:33:47.649Z,63.45
2023-06-13T05:34:47.668Z,63.51
2023-06-13T05:35:57.201Z,62.91
2023-06-13T05:36:49.679Z,62.68
2023-06-13T05:37:47.657Z,62.18
2023-06-13T05:38:47.669Z,63.11
2023-06-13T05:39:47.620Z,62.78
2023-06-13T05:40:47.612Z,63.01
2023-06-13T05:41:47.631Z,63.28
2023-06-13T05:42:47.627Z,63.48
2023-06-13T05:43:47.623Z,62.91
2023-06-13T05:44:47.610Z,63.31
2023-06-13T05:45:47.696Z,63.54
2023-06-13T05:46:47.704Z,64.89
2023-06-13T05:47:47.674Z,64.86
2023-06-13T05:48:47.715Z,64.32
2023-06-13T05:49:47.636Z,64.55
2023-06-13T05:50:47.613Z,64.22
2023-06-13T05:51:47.624Z,63.68
2023-06-13T05:52:47.556Z,62.85
2023-06-13T05:53:47.699Z,62.45
2023-06-13T05:54:47.518Z,62.65
2023-06-13T05:55:47.593Z,62.35
2023-06-13T05:56:47.513Z,61.51
2023-06-13T05:57:47.532Z,62.32
2023-06-13T05:58:47.555Z,61.18
2023-06-13T05:59:47.537Z,61.18
2023-06-13T06:00:47.518Z,61.25
2023-06-13T06:01:47.491Z,60.75
2023-06-13T06:02:47.767Z,60.98
2023-06-13T06:03:47.548Z,60.96
2023-06-13T06:04:47.574Z,60.32
2023-06-13T06:05:47.478Z,60.15
2023-06-13T06:06:47.442Z,59.92
2023-06-13T06:07:47.449Z,60.75
2023-06-13T06:08:47.446Z,62.29
2023-06-13T06:09:47.435Z,62.52
2023-06-13T06:10:47.444Z,62.62
2023-06-13T06:11:47.440Z,62.19
2023-06-13T06:12:47.407Z,63.12
2023-06-13T06:13:47.425Z,64.06
2023-06-13T06:14:47.400Z,63.62
2023-06-13T06:15:47.441Z,62.99
2023-06-13T06:16:47.413Z,61.25
2023-06-13T06:17:47.534Z,61.33
2023-06-13T06:18:47.613Z,60.52
2023-06-13T06:19:47.379Z,60.62
2023-06-13T06:20:47.400Z,60.52
2023-06-13T06:21:47.373Z,60.60
2023-06-13T06:22:47.408Z,59.19
2023-06-13T06:23:47.408Z,59.82
2023-06-13T06:24:47.328Z,60.42
2023-06-13T06:25:47.330Z,61.35
2023-06-13T06:26:47.336Z,61.02
2023-06-13T06:27:47.347Z,60.62
2023-06-13T06:28:47.347Z,59.89
2023-06-13T06:29:47.299Z,58.89
2023-06-13T06:30:47.325Z,60.32
2023-06-13T06:31:47.275Z,61.22
2023-06-13T06:32:47.314Z,60.89
2023-06-13T06:33:47.286Z,59.72
2023-06-13T06:34:47.291Z,59.69
2023-06-13T06:35:47.272Z,59.66
2023-06-13T06:36:47.328Z,59.36
2023-06-13T06:37:47.253Z,58.86
2023-06-13T06:38:47.295Z,58.43
2023-06-13T06:39:47.228Z,58.40
2023-06-13T06:40:47.282Z,58.20
2023-06-13T06:41:47.248Z,58.73
2023-06-13T06:42:47.227Z,58.13
2023-06-13T06:43:47.213Z,58.23
2023-06-13T06:44:47.256Z,58.94
2023-06-13T06:45:47.230Z,58.43
2023-06-13T06:46:47.246Z,57.80
2023-06-13T06:47:47.233Z,58.94
2023-06-13T06:48:47.223Z,58.76
2023-06-13T06:49:47.170Z,58.53
2023-06-13T06:50:47.170Z,59.33
2023-06-13T06:51:47.175Z,58.94
2023-06-13T06:52:47.251Z,58.40
2023-06-13T06:53:47.136Z,58.15
2023-06-13T06:54:47.154Z,57.45
2023-06-13T06:55:47.141Z,56.92
2023-06-13T06:56:47.166Z,57.52
2023-06-13T06:57:47.130Z,56.70
2023-06-13T06:58:47.119Z,56.09
2023-06-13T06:59:47.105Z,55.77
2023-06-13T07:00:47.191Z,55.66
2023-06-13T07:01:47.135Z,56.16
2023-06-13T07:02:47.143Z,55.27
2023-06-13T07:03:47.120Z,55.36
2023-06-13T07:04:47.063Z,55.24
2023-06-13T07:05:47.117Z,54.86
2023-06-13T07:06:47.095Z,55.36
2023-06-13T07:07:47.064Z,55.14
2023-06-13T07:08:47.060Z,55.04
2023-06-13T07:09:48.039Z,54.91
2023-06-13T07:10:47.463Z,54.22
2023-06-13T07:11:47.026Z,55.64
2023-06-13T07:12:47.019Z,54.44
2023-06-13T07:13:47.053Z,55.07
2023-06-13T07:14:47.054Z,54.64
2023-06-13T07:15:47.054Z,54.52
2023-06-13T07:16:47.072Z,54.09
2023-06-13T07:17:47.036Z,51.89
2023-06-13T07:18:46.969Z,51.84
2023-06-13T07:19:46.992Z,49.21
2023-06-13T07:20:47.032Z,47.27
2023-06-13T07:21:47.069Z,46.36
2023-06-13T07:22:47.005Z,44.71
2023-06-13T07:24:01.530Z,43.43
2023-06-13T07:24:48.972Z,41.31
2023-06-13T07:25:46.965Z,39.83
2023-06-13T07:26:47.012Z,40.11
2023-06-13T07:27:46.996Z,40.01
2023-06-13T07:28:47.944Z,39.93
2023-06-13T07:29:46.953Z,40.13
2023-06-13T07:30:46.926Z,38.47
2023-06-13T07:31:46.968Z,37.01
2023-06-13T07:32:47.000Z,35.36
2023-06-13T07:33:46.921Z,34.05
2023-06-13T07:35:03.915Z,33.05
2023-06-13T07:35:48.868Z,33.89
2023-06-13T07:36:46.853Z,34.82
2023-06-13T07:37:46.936Z,33.77
2023-06-13T07:38:46.946Z,35.35
2023-06-13T07:39:46.875Z,33.72
2023-06-13T07:40:46.856Z,32.43
2023-06-13T07:41:46.826Z,32.89
2023-06-13T07:42:46.841Z,30.71
2023-06-13T07:43:46.834Z,32.01
2023-06-13T07:44:46.909Z,31.17
2023-06-13T07:45:46.866Z,30.12
2023-06-13T07:46:46.805Z,31.32
2023-06-13T07:47:46.849Z,30.58
2023-06-13T07:48:46.781Z,30.76
2023-06-13T07:49:46.821Z,31.64
2023-06-13T07:50:46.794Z,31.51
2023-06-13T07:51:46.766Z,31.95
2023-06-13T07:52:47.074Z,31.94
2023-06-13T07:53:46.787Z,30.50
2023-06-13T07:54:46.769Z,30.07
2023-06-13T07:55:46.822Z,28.06
2023-06-13T07:56:46.724Z,27.47
2023-06-13T07:57:59.113Z,26.46
2023-06-13T07:58:48.732Z,27.09
2023-06-13T07:59:46.739Z,27.38
2023-06-13T08:00:46.711Z,28.91
2023-06-13T08:01:46.759Z,29.02
2023-06-13T08:02:46.948Z,28.86
2023-06-13T08:03:46.905Z,28.77
2023-06-13T08:04:54.052Z,28.40
2023-06-13T08:05:48.681Z,29.58
2023-06-13T08:06:46.649Z,28.78
2023-06-13T08:07:46.661Z,28.77
2023-06-13T08:08:46.654Z,29.14
2023-06-13T08:09:46.689Z,28.47
2023-06-13T08:10:46.643Z,27.36
2023-06-13T08:11:46.630Z,28.08
2023-06-13T08:12:46.628Z,29.07
2023-06-13T08:13:46.655Z,29.82
2023-06-13T08:14:47.432Z,30.05
2023-06-13T08:15:46.651Z,28.45
2023-06-13T08:16:48.500Z,28.15
2023-06-13T08:17:46.625Z,28.89
2023-06-13T08:18:46.631Z,30.49
2023-06-13T08:19:46.572Z,29.16
2023-06-13T08:20:46.636Z,29.91
2023-06-13T08:21:46.580Z,30.53
2023-06-13T08:22:46.568Z,28.82
2023-06-13T08:23:46.605Z,30.30
2023-06-13T08:24:46.561Z,30.21
2023-06-13T08:25:46.738Z,29.87
2023-06-13T08:26:46.551Z,29.14
2023-06-13T08:27:46.534Z,27.55
2023-06-13T08:28:46.553Z,26.95
2023-06-13T08:29:46.527Z,27.37
2023-06-13T08:30:46.569Z,28.94
2023-06-13T08:31:49.815Z,28.57
2023-06-13T08:32:47.721Z,28.99
2023-06-13T08:34:03.023Z,29.83
2023-06-13T08:34:48.521Z,29.21
2023-06-13T08:35:46.552Z,30.37
2023-06-13T08:36:46.504Z,29.00
2023-06-13T08:37:46.478Z,30.42
2023-06-13T08:38:51.275Z,29.31
2023-06-13T08:39:48.476Z,28.79
2023-06-13T08:40:46.439Z,28.72
2023-06-13T08:41:46.458Z,27.90
2023-06-13T08:42:46.522Z,27.02
2023-06-13T08:43:46.445Z,27.02
2023-06-13T08:44:46.460Z,26.80
2023-06-13T08:45:46.432Z,27.37
2023-06-13T08:46:46.521Z,30.10
2023-06-13T08:47:46.618Z,30.04
2023-06-13T08:48:46.447Z,29.94
2023-06-13T08:49:46.449Z,31.25
2023-06-13T08:50:46.493Z,33.53
2023-06-13T08:51:46.375Z,33.13
2023-06-13T08:52:46.383Z,31.51
2023-06-13T08:53:47.364Z,30.00
2023-06-13T08:55:02.229Z,26.70
2023-06-13T08:56:47.355Z,25.95
2023-06-13T08:57:46.348Z,25.68
2023-06-13T08:58:46.328Z,25.47
2023-06-13T08:59:46.351Z,25.17
2023-06-13T09:00:46.318Z,26.84
2023-06-13T09:01:46.314Z,25.90
2023-06-13T09:02:46.434Z,25.07
2023-06-13T09:03:46.381Z,24.91
2023-06-13T09:04:46.305Z,26.39
2023-06-13T09:05:46.346Z,26.40
2023-06-13T09:06:46.309Z,26.62
2023-06-13T09:07:46.289Z,26.62
2023-06-13T09:08:46.288Z,26.44
2023-06-13T09:09:46.264Z,25.24
2023-06-13T09:10:46.268Z,24.53
2023-06-13T09:11:47.383Z,23.93
2023-06-13T09:12:46.274Z,25.42
2023-06-13T09:13:46.283Z,25.81
2023-06-13T09:14:46.328Z,24.43
2023-06-13T09:15:46.277Z,26.11
2023-06-13T09:16:46.394Z,24.73
2023-06-13T09:17:46.368Z,24.02
2023-06-13T09:18:46.253Z,24.02
2023-06-13T09:19:46.196Z,24.22
2023-06-13T09:20:46.198Z,23.75
2023-06-13T09:21:46.193Z,23.52
2023-06-13T09:22:46.207Z,24.49
2023-06-13T09:23:46.223Z,23.21
2023-06-13T09:24:46.161Z,23.52
2023-06-13T09:25:46.182Z,23.79
2023-06-13T09:26:46.183Z,22.51
2023-06-13T09:27:46.152Z,22.53
2023-06-13T09:28:46.175Z,23.68
2023-06-13T09:29:46.156Z,24.15
2023-06-13T09:30:46.164Z,24.13
2023-06-13T09:31:46.134Z,24.51
2023-06-13T09:32:46.183Z,24.24
2023-06-13T09:33:46.211Z,25.07
2023-06-13T09:34:46.127Z,24.25
2023-06-13T09:35:46.119Z,24.36
2023-06-13T09:36:46.161Z,25.22
2023-06-13T09:37:46.172Z,24.22
2023-06-13T09:38:46.084Z,23.94
2023-06-13T09:39:46.709Z,25.04
2023-06-13T09:40:46.134Z,24.69
2023-06-13T09:41:46.113Z,23.91
2023-06-13T09:42:56.421Z,23.51
2023-06-13T09:43:48.072Z,22.95
2023-06-13T09:45:48.074Z,25.85
2023-06-13T09:46:46.083Z,24.52
2023-06-13T09:47:46.214Z,25.94
2023-06-13T09:48:46.099Z,25.78
2023-06-13T09:50:48.057Z,25.31
2023-06-13T09:51:46.085Z,25.84
2023-06-13T09:52:46.010Z,26.81
2023-06-13T09:53:46.037Z,27.61
2023-06-13T09:54:46.050Z,27.50
2023-06-13T09:55:46.013Z,26.65
2023-06-13T09:56:46.022Z,27.01
2023-06-13T09:58:08.017Z,25.37
2023-06-13T09:58:48.022Z,25.50
2023-06-13T09:59:45.977Z,23.97
2023-06-13T10:00:47.001Z,24.16
2023-06-13T10:01:46.038Z,24.43
2023-06-13T10:02:46.026Z,25.50
2023-06-13T10:03:46.019Z,26.15
2023-06-13T10:04:46.018Z,27.47
2023-06-13T10:05:45.945Z,27.87
2023-06-13T10:06:46.131Z,27.60
2023-06-13T10:07:45.966Z,29.23
2023-06-13T10:08:45.945Z,28.85
2023-06-13T10:09:45.986Z,29.25
2023-06-13T10:10:45.938Z,28.69
2023-06-13T10:11:45.935Z,26.83
2023-06-13T10:12:45.942Z,26.18
2023-06-13T10:13:45.934Z,25.93
2023-06-13T10:14:46.040Z,27.57
2023-06-13T10:15:45.991Z,29.21
2023-06-13T10:16:58.711Z,29.02
2023-06-13T10:17:47.946Z,29.23
2023-06-13T10:18:45.934Z,31.32
2023-06-13T10:19:45.946Z,31.04
2023-06-13T10:20:45.976Z,31.76
2023-06-13T10:21:51.885Z,32.47
2023-06-13T10:22:47.891Z,32.04
2023-06-13T10:23:45.892Z,31.16
2023-06-13T10:24:45.890Z,31.78
2023-06-13T10:25:45.845Z,31.16
2023-06-13T10:26:45.849Z,30.66
2023-06-13T10:27:45.861Z,32.35
2023-06-13T10:28:45.849Z,31.57
2023-06-13T10:29:45.836Z,31.86
2023-06-13T10:30:45.859Z,31.75
2023-06-13T10:31:45.862Z,30.44
2023-06-13T10:32:45.857Z,30.31
2023-06-13T10:33:45.837Z,28.68
2023-06-13T10:34:45.815Z,28.79
2023-06-13T10:35:45.839Z,25.89
2023-06-13T10:36:46.199Z,25.79
2023-06-13T10:37:45.785Z,26.12
2023-06-13T10:38:45.783Z,27.07
2023-06-13T10:39:45.794Z,28.49
2023-06-13T10:40:45.767Z,26.54
2023-06-13T10:41:45.778Z,26.43
2023-06-13T10:42:45.767Z,26.05
2023-06-13T10:43:45.781Z,25.79
2023-06-13T10:44:45.819Z,25.74
2023-06-13T10:45:45.772Z,26.34
2023-06-13T10:46:45.733Z,25.72
2023-06-13T10:47:45.740Z,26.70
2023-06-13T10:48:45.738Z,26.50
2023-06-13T10:49:45.823Z,25.92
2023-06-13T10:50:45.736Z,25.31
2023-06-13T10:51:45.699Z,25.67
2023-06-13T10:52:45.714Z,25.07
2023-06-13T10:53:45.696Z,24.49
2023-06-13T10:54:45.703Z,24.63
2023-06-13T10:55:45.732Z,25.72
2023-06-13T10:56:45.691Z,24.91
2023-06-13T10:57:45.693Z,24.71
2023-06-13T10:58:45.674Z,25.61
2023-06-13T10:59:45.678Z,24.78
2023-06-13T11:00:45.674Z,24.35
2023-06-13T11:01:45.700Z,23.56
2023-06-13T11:02:45.710Z,23.66
2023-06-13T11:03:45.712Z,24.30
2023-06-13T11:04:46.632Z,23.83
2023-06-13T11:05:46.933Z,26.12
2023-06-13T11:06:45.610Z,24.19
2023-06-13T11:07:45.725Z,24.21
2023-06-13T11:08:45.668Z,24.45
2023-06-13T11:09:45.587Z,23.02
2023-06-13T11:10:45.646Z,21.97
2023-06-13T11:11:45.617Z,24.89
2023-06-13T11:12:45.718Z,25.18
2023-06-13T11:13:45.575Z,24.32
2023-06-13T11:14:45.639Z,25.65
2023-06-13T11:15:45.550Z,26.48
2023-06-13T11:16:45.604Z,26.61
2023-06-13T11:17:47.149Z,27.28
2023-06-13T11:18:45.614Z,27.08
2023-06-13T11:19:45.522Z,26.70
2023-06-13T11:20:45.513Z,26.48
2023-06-13T11:21:45.524Z,25.99
2023-06-13T11:22:45.536Z,26.72
2023-06-13T11:23:45.536Z,26.05
2023-06-13T11:24:45.537Z,27.56
2023-06-13T11:25:45.519Z,27.29
2023-06-13T11:26:45.518Z,26.06
2023-06-13T11:27:45.492Z,25.81
2023-06-13T11:28:45.479Z,23.21
2023-06-13T11:29:45.489Z,22.62
2023-06-13T11:30:45.617Z,23.35
2023-06-13T11:31:45.539Z,24.62
2023-06-13T11:32:45.484Z,24.71
2023-06-13T11:33:45.442Z,23.91
2023-06-13T11:34:45.455Z,24.42
2023-06-13T11:35:45.447Z,23.93
2023-06-13T11:36:45.450Z,24.96
2023-06-13T11:37:45.622Z,25.44
2023-06-13T11:38:45.433Z,23.96
2023-06-13T11:39:46.771Z,24.30
2023-06-13T11:40:47.412Z,24.62
2023-06-13T11:41:45.448Z,23.05
2023-06-13T11:42:45.422Z,24.44
2023-06-13T11:43:45.418Z,24.13
2023-06-13T11:44:45.436Z,24.04
2023-06-13T11:45:45.410Z,25.82
2023-06-13T11:46:45.472Z,25.72
2023-06-13T11:47:45.498Z,25.31
2023-06-13T11:48:51.605Z,25.18
2023-06-13T11:49:47.396Z,24.49
2023-06-13T11:50:45.371Z,24.44
2023-06-13T11:51:45.393Z,22.58
2023-06-13T11:52:45.432Z,21.88
2023-06-13T11:53:45.326Z,20.88
2023-06-13T11:54:45.366Z,21.37
2023-06-13T11:55:45.373Z,21.47
2023-06-13T11:56:45.305Z,22.00
2023-06-13T11:57:45.337Z,23.40
2023-06-13T11:58:45.297Z,23.14
2023-06-13T11:59:45.300Z,24.64
2023-06-13T12:00:45.366Z,26.12
2023-06-13T12:01:45.435Z,25.26
2023-06-13T12:02:45.617Z,26.87
2023-06-13T12:03:45.361Z,26.50
2023-06-13T12:04:50.055Z,25.31
2023-06-13T12:05:47.312Z,26.61
2023-06-13T12:06:45.246Z,26.70
2023-06-13T12:07:45.271Z,24.66
2023-06-13T12:08:45.262Z,24.15
2023-06-13T12:09:45.222Z,23.41
2023-06-13T12:10:45.922Z,22.83
2023-06-13T12:11:45.221Z,22.10
2023-06-13T12:12:45.225Z,22.48
2023-06-13T12:13:45.236Z,22.62
2023-06-13T12:14:45.305Z,22.12
2023-06-13T12:15:45.174Z,22.72
2023-06-13T12:16:45.192Z,22.52
2023-06-13T12:17:45.592Z,22.55
2023-06-13T12:18:46.161Z,23.43
2023-06-13T12:19:45.312Z,22.75
2023-06-13T12:20:45.140Z,24.55
2023-06-13T12:21:45.198Z,23.94
2023-06-13T12:22:45.114Z,24.22
2023-06-13T12:23:45.173Z,23.91
2023-06-13T12:24:45.204Z,22.75
2023-06-13T12:25:45.104Z,23.54
2023-06-13T12:26:45.189Z,23.54
2023-06-13T12:27:47.056Z,24.51
2023-06-13T12:28:45.147Z,24.02
2023-06-13T12:29:45.133Z,22.91
2023-06-13T12:30:45.134Z,23.01
2023-06-13T12:31:45.160Z,24.18
2023-06-13T12:32:45.352Z,24.39
2023-06-13T12:33:47.028Z,24.10
2023-06-13T12:34:45.117Z,23.60
2023-06-13T12:35:45.073Z,22.78
2023-06-13T12:36:45.125Z,21.62
2023-06-13T12:37:48.379Z,22.50
2023-06-13T12:38:46.204Z,22.20
2023-06-13T12:39:45.107Z,21.59
2023-06-13T12:40:45.020Z,21.25
2023-06-13T12:41:45.035Z,22.19
2023-06-13T12:42:45.180Z,21.09
2023-06-13T12:43:45.157Z,20.52
2023-06-13T12:44:45.135Z,22.10
2023-06-13T12:45:44.991Z,22.99
2023-06-13T12:46:45.064Z,23.39
2023-06-13T12:47:45.173Z,22.91
2023-06-13T12:48:45.116Z,22.56
2023-06-13T12:49:45.916Z,21.67
2023-06-13T12:50:44.953Z,21.15
2023-06-13T12:51:45.994Z,22.02
2023-06-13T12:52:44.940Z,21.54
2023-06-13T12:53:45.065Z,21.03
2023-06-13T12:54:44.987Z,22.41
2023-06-13T12:55:44.975Z,21.22